createdAt,value
2023-05-09T00:01:53.845Z,12.18
2023-05-09T00:04:21.624Z,11.98
2023-05-09T00:06:49.384Z,12.45
2023-05-09T00:09:17.100Z,12.13
2023-05-09T00:11:46.237Z,12.25
2023-05-09T00:14:14.032Z,12.73
2023-05-09T00:16:41.868Z,12.55
2023-05-09T00:19:09.890Z,12.13
2023-05-09T00:21:37.795Z,11.57
2023-05-09T00:24:06.275Z,13.02
2023-05-09T00:26:33.966Z,11.73
2023-05-09T00:29:03.009Z,12.02
2023-05-09T00:31:31.576Z,12.00
2023-05-09T00:33:59.236Z,12.57
2023-05-09T00:36:27.067Z,12.75
2023-05-09T00:38:54.792Z,13.02
2023-05-09T00:41:22.493Z,12.25
2023-05-09T00:43:50.261Z,12.27
2023-05-09T00:46:19.509Z,12.68
2023-05-09T00:48:47.344Z,12.05
2023-05-09T00:51:15.275Z,12.15
2023-05-09T00:53:43.046Z,11.95
2023-05-09T00:56:12.402Z,12.52
2023-05-09T00:58:40.234Z,11.75
2023-05-09T01:01:08.239Z,11.52
2023-05-09T01:03:41.179Z,11.50
2023-05-09T01:06:17.955Z,11.82
2023-05-09T01:08:52.543Z,10.73
2023-05-09T01:11:26.555Z,10.50
2023-05-09T01:14:04.419Z,10.20
2023-05-09T01:16:39.622Z,10.75
2023-05-09T01:19:28.851Z,11.25
2023-05-09T01:21:58.806Z,11.07
2023-05-09T01:24:36.797Z,10.85
2023-05-09T01:27:22.006Z,11.07
2023-05-09T01:29:56.727Z,10.75
2023-05-09T01:32:27.432Z,10.65
2023-05-09T01:34:57.461Z,12.43
2023-05-09T01:37:33.954Z,11.20
2023-05-09T01:40:08.245Z,11.73
2023-05-09T01:42:40.930Z,10.95
2023-05-09T01:47:41.019Z,10.13
2023-05-09T01:50:12.145Z,10.05
2023-05-09T01:52:43.871Z,10.80
2023-05-09T01:55:12.694Z,10.53
2023-05-09T01:57:41.544Z,10.15
2023-05-09T02:00:14.315Z,9.60
2023-05-09T02:02:43.143Z,10.25
2023-05-09T02:05:12.860Z,10.23
2023-05-09T02:07:42.731Z,10.02
2023-05-09T02:10:11.436Z,9.93
2023-05-09T02:12:39.585Z,8.85
2023-05-09T02:15:08.931Z,8.18
2023-05-09T02:17:38.156Z,8.35
2023-05-09T02:20:09.861Z,8.93
2023-05-09T02:22:38.390Z,9.60
2023-05-09T02:25:09.253Z,9.50
2023-05-09T02:27:39.524Z,10.00
2023-05-09T02:30:10.682Z,9.63
2023-05-09T02:32:41.753Z,10.00
2023-05-09T02:35:11.211Z,10.02
2023-05-09T02:37:40.036Z,10.57
2023-05-09T02:40:10.526Z,10.98
2023-05-09T02:42:38.545Z,10.48
2023-05-09T02:45:09.116Z,10.57
2023-05-09T02:47:37.039Z,11.35
2023-05-09T02:50:07.625Z,11.60
2023-05-09T02:52:35.582Z,10.70
2023-05-09T02:55:04.115Z,10.63
2023-05-09T02:57:32.097Z,11.20
2023-05-09T03:00:00.278Z,11.60
2023-05-09T03:02:28.207Z,11.00
2023-05-09T03:04:56.621Z,10.70
2023-05-09T03:07:25.968Z,11.88
2023-05-09T03:09:53.845Z,11.18
2023-05-09T03:12:21.785Z,11.25
2023-05-09T03:14:49.699Z,11.50
2023-05-09T03:17:21.378Z,12.38
2023-05-09T03:19:49.445Z,11.50
2023-05-09T03:22:17.692Z,12.05
2023-05-09T03:24:46.763Z,11.70
2023-05-09T03:27:14.473Z,13.68
2023-05-09T03:29:42.439Z,13.55
2023-05-09T03:32:10.109Z,9.93
2023-05-09T03:34:37.830Z,9.85
2023-05-09T03:37:05.776Z,9.60
2023-05-09T03:39:33.574Z,9.32
2023-05-09T03:42:02.634Z,9.35
2023-05-09T03:44:30.502Z,9.80
2023-05-09T03:46:58.302Z,10.23
2023-05-09T03:49:26.030Z,11.20
2023-05-09T03:51:54.031Z,10.52
2023-05-09T03:54:21.782Z,10.73
2023-05-09T03:56:49.574Z,10.65
2023-05-09T03:59:18.675Z,9.90
2023-05-09T04:01:46.498Z,9.70
2023-05-09T04:04:14.612Z,10.45
2023-05-09T04:06:42.428Z,10.70
2023-05-09T04:09:10.373Z,10.23
2023-05-09T04:11:38.194Z,11.02
2023-05-09T04:14:07.267Z,11.80
2023-05-09T04:16:36.447Z,11.50
2023-05-09T04:19:04.472Z,12.35
2023-05-09T04:21:32.896Z,11.38
2023-05-09T04:24:00.745Z,12.25
2023-05-09T04:26:28.710Z,11.98
2023-05-09T04:28:56.717Z,14.30
2023-05-09T04:31:24.674Z,13.27
2023-05-09T04:33:53.860Z,12.38
2023-05-09T04:36:22.200Z,12.80
2023-05-09T04:38:49.952Z,12.30
2023-05-09T04:41:17.736Z,12.00
2023-05-09T04:43:46.022Z,12.77
2023-05-09T04:46:14.137Z,11.93
2023-05-09T04:48:41.842Z,12.57
2023-05-09T04:51:10.957Z,11.88
2023-05-09T04:53:38.668Z,11.95
2023-05-09T04:56:07.112Z,12.35
2023-05-09T04:58:38.397Z,13.18
2023-05-09T05:01:06.663Z,11.65
2023-05-09T05:03:34.874Z,12.18
2023-05-09T05:06:02.546Z,11.30
2023-05-09T05:08:31.579Z,12.15
2023-05-09T05:10:59.302Z,11.60
2023-05-09T05:13:27.089Z,11.13
2023-05-09T05:15:54.883Z,12.02
2023-05-09T05:18:22.682Z,11.27
2023-05-09T05:20:50.429Z,11.32
2023-05-09T05:23:18.334Z,11.93
2023-05-09T05:25:47.621Z,11.85
2023-05-09T05:28:15.382Z,13.07
2023-05-09T05:30:43.071Z,11.50
2023-05-09T05:33:10.876Z,12.02
2023-05-09T05:35:38.714Z,12.35
2023-05-09T05:38:06.565Z,13.10
2023-05-09T05:40:34.319Z,13.35
2023-05-09T05:43:03.415Z,12.07
2023-05-09T05:45:31.314Z,13.05
2023-05-09T05:47:59.148Z,13.20
2023-05-09T05:50:27.036Z,13.43
2023-05-09T05:52:54.847Z,13.35
2023-05-09T05:55:22.626Z,13.82
2023-05-09T05:57:50.347Z,15.07
2023-05-09T06:00:20.651Z,15.88
2023-05-09T06:02:48.686Z,14.38
2023-05-09T06:05:17.027Z,14.00
2023-05-09T06:07:45.564Z,14.77
2023-05-09T06:10:13.533Z,15.13
2023-05-09T06:12:41.311Z,14.52
2023-05-09T06:15:09.562Z,15.60
2023-05-09T06:17:38.884Z,15.50
2023-05-09T06:20:08.180Z,16.63
2023-05-09T06:22:35.978Z,15.80
2023-05-09T06:25:03.960Z,16.73
2023-05-09T06:27:31.797Z,16.13
2023-05-09T06:29:59.762Z,17.00
2023-05-09T06:32:28.046Z,16.45
2023-05-09T06:34:57.197Z,18.88
2023-05-09T06:37:24.941Z,14.90
2023-05-09T06:39:52.760Z,15.98
2023-05-09T06:42:20.563Z,16.23
2023-05-09T06:44:48.654Z,16.13
2023-05-09T06:47:16.442Z,15.75
2023-05-09T06:49:44.183Z,17.05
2023-05-09T06:52:15.722Z,18.15
2023-05-09T06:54:43.504Z,16.92
2023-05-09T06:57:11.370Z,16.90
2023-05-09T06:59:39.626Z,17.73
2023-05-09T07:02:08.786Z,18.95
2023-05-09T07:04:36.569Z,19.02
2023-05-09T07:07:04.274Z,19.08
2023-05-09T07:09:33.405Z,19.63
2023-05-09T07:12:01.675Z,19.80
2023-05-09T07:14:30.725Z,20.65
2023-05-09T07:17:13.877Z,20.52
2023-05-09T07:19:46.199Z,19.90
2023-05-09T07:22:14.499Z,18.40
2023-05-09T07:24:44.350Z,19.90
2023-05-09T07:27:12.141Z,21.92
2023-05-09T07:29:39.856Z,21.63
2023-05-09T07:32:07.946Z,22.02
2023-05-09T07:34:37.187Z,23.67
2023-05-09T07:37:04.972Z,26.67
2023-05-09T07:39:32.808Z,25.75
2023-05-09T07:42:01.964Z,28.02
2023-05-09T07:44:29.735Z,29.08
2023-05-09T07:46:59.174Z,27.92
2023-05-09T07:49:26.958Z,28.17
2023-05-09T07:51:54.694Z,27.42
2023-05-09T07:54:22.623Z,27.20
2023-05-09T07:56:50.312Z,27.55
2023-05-09T07:59:19.450Z,26.88
2023-05-09T08:01:47.139Z,26.92
2023-05-09T08:04:15.010Z,26.77
2023-05-09T08:06:42.783Z,26.40
2023-05-09T08:09:11.415Z,26.90
2023-05-09T08:11:39.515Z,26.15
2023-05-09T08:14:07.367Z,27.85
2023-05-09T08:16:36.547Z,26.55
2023-05-09T08:19:04.322Z,26.80
2023-05-09T08:21:31.985Z,25.33
2023-05-09T08:24:00.955Z,25.17
2023-05-09T08:26:28.793Z,23.95
2023-05-09T08:28:56.523Z,25.15
2023-05-09T08:31:24.354Z,23.50
2023-05-09T08:33:53.589Z,22.23
2023-05-09T08:36:21.387Z,22.05
2023-05-09T08:38:49.532Z,23.05
2023-05-09T08:41:17.510Z,22.67
2023-05-09T08:43:46.003Z,21.52
2023-05-09T08:46:15.083Z,22.10
2023-05-09T08:48:45.050Z,22.40
2023-05-09T08:51:16.322Z,22.45
2023-05-09T08:53:44.933Z,22.45
2023-05-09T08:56:13.155Z,21.92
2023-05-09T08:58:41.582Z,21.48
2023-05-09T09:01:10.541Z,21.05
2023-05-09T09:03:39.108Z,20.90
2023-05-09T09:06:09.859Z,21.90
2023-05-09T09:08:39.171Z,20.92
2023-05-09T09:11:07.311Z,20.55
2023-05-09T09:13:41.253Z,19.95
2023-05-09T09:16:11.988Z,20.13
2023-05-09T09:18:40.397Z,20.23
2023-05-09T09:21:11.072Z,18.85
2023-05-09T09:23:43.019Z,17.95
2023-05-09T09:26:10.992Z,17.25
2023-05-09T09:28:38.732Z,17.75
2023-05-09T09:31:21.313Z,16.52
2023-05-09T09:33:49.668Z,16.30
2023-05-09T09:36:17.573Z,16.25
2023-05-09T09:38:46.881Z,16.65
2023-05-09T09:41:14.775Z,18.00
2023-05-09T09:43:47.193Z,17.90
2023-05-09T09:46:16.407Z,21.40
2023-05-09T09:48:50.837Z,20.88
2023-05-09T09:51:19.058Z,21.48
2023-05-09T09:53:48.337Z,20.83
2023-05-09T09:56:16.314Z,20.15
2023-05-09T09:58:44.075Z,19.65
2023-05-09T10:01:14.163Z,18.20
2023-05-09T10:03:43.515Z,18.60
2023-05-09T10:06:12.787Z,16.58
2023-05-09T10:08:40.928Z,16.58
2023-05-09T10:11:10.921Z,16.67
2023-05-09T10:13:39.348Z,15.93
2023-05-09T10:16:09.647Z,16.40
2023-05-09T10:18:38.587Z,17.30
2023-05-09T10:21:09.153Z,15.20
2023-05-09T10:23:39.333Z,15.80
2023-05-09T10:26:17.900Z,15.43
2023-05-09T10:28:48.948Z,14.70
2023-05-09T10:31:23.579Z,16.95
2023-05-09T10:33:52.524Z,15.73
2023-05-09T10:36:21.791Z,14.98
2023-05-09T10:38:50.944Z,15.55
2023-05-09T10:41:21.946Z,16.13
2023-05-09T10:43:50.035Z,15.88
2023-05-09T10:46:18.495Z,16.67
2023-05-09T10:48:46.669Z,15.40
2023-05-09T10:51:14.821Z,15.65
2023-05-09T10:53:44.619Z,14.93
2023-05-09T10:56:26.512Z,14.63
2023-05-09T10:58:54.646Z,15.27
2023-05-09T11:01:35.041Z,14.85
2023-05-09T11:04:09.839Z,14.32
2023-05-09T11:06:49.482Z,13.70
2023-05-09T11:09:28.667Z,13.35
2023-05-09T11:11:59.392Z,13.35
2023-05-09T11:14:31.164Z,13.07
2023-05-09T11:16:59.706Z,13.05
2023-05-09T11:19:38.275Z,13.20
2023-05-09T11:22:16.436Z,13.73
2023-05-09T11:24:48.493Z,12.48
2023-05-09T11:27:20.353Z,12.45
2023-05-09T11:29:52.831Z,12.55
2023-05-09T11:32:22.075Z,11.43
2023-05-09T11:34:50.618Z,10.93
2023-05-09T11:37:19.395Z,10.30
2023-05-09T11:39:58.180Z,10.07
2023-05-09T11:42:29.252Z,10.57
2023-05-09T11:44:58.606Z,10.90
2023-05-09T11:47:29.600Z,11.02
2023-05-09T11:49:57.471Z,10.30
2023-05-09T11:52:25.885Z,9.80
2023-05-09T11:54:53.687Z,10.15
2023-05-09T11:57:21.853Z,10.38
2023-05-09T11:59:51.192Z,10.15
2023-05-09T12:02:19.260Z,10.68
2023-05-09T12:04:47.503Z,10.43
2023-05-09T12:07:17.078Z,10.18
2023-05-09T12:09:45.163Z,9.85
2023-05-09T12:12:13.711Z,10.80
2023-05-09T12:14:42.414Z,11.98
2023-05-09T12:17:11.628Z,12.40
2023-05-09T12:19:39.373Z,13.65
2023-05-09T12:22:07.195Z,13.43
2023-05-09T12:24:37.730Z,14.25
2023-05-09T12:27:07.953Z,14.57
2023-05-09T12:29:36.475Z,14.40
2023-05-09T12:32:04.988Z,13.07
2023-05-09T12:34:34.327Z,13.05
2023-05-09T12:37:03.732Z,14.00
2023-05-09T12:39:31.676Z,10.07
2023-05-09T12:42:01.956Z,8.65
2023-05-09T12:44:30.381Z,5.82
2023-05-09T12:46:59.969Z,5.38
2023-05-09T12:49:28.457Z,5.18
2023-05-09T12:52:00.278Z,5.90
2023-05-09T12:54:30.053Z,5.72
2023-05-09T12:56:59.703Z,6.40
2023-05-09T12:59:29.054Z,7.25
2023-05-09T13:01:58.766Z,6.78
2023-05-09T13:04:28.043Z,7.03
2023-05-09T13:06:59.970Z,6.10
2023-05-09T13:09:28.463Z,5.72
2023-05-09T13:11:56.182Z,5.53
2023-05-09T13:14:24.390Z,5.43
2023-05-09T13:16:52.186Z,4.95
2023-05-09T13:19:20.050Z,5.35
2023-05-09T13:21:48.786Z,5.13
2023-05-09T13:24:17.928Z,5.60
2023-05-09T13:26:45.719Z,6.40
2023-05-09T13:29:13.433Z,6.43
2023-05-09T13:31:41.183Z,6.28
2023-05-09T13:34:08.973Z,6.00
2023-05-09T13:36:36.707Z,5.15
2023-05-09T13:39:04.886Z,6.25
2023-05-09T13:41:34.541Z,5.75
2023-05-09T13:44:03.693Z,5.65
2023-05-09T13:46:31.674Z,5.55
2023-05-09T13:48:59.477Z,5.10
2023-05-09T13:51:27.304Z,5.10
2023-05-09T13:53:55.063Z,5.25
2023-05-09T13:56:22.776Z,5.03
2023-05-09T13:58:52.012Z,5.70
2023-05-09T14:01:19.808Z,5.78
2023-05-09T14:03:49.251Z,5.95
2023-05-09T14:06:17.036Z,5.78
2023-05-09T14:08:44.870Z,5.95
2023-05-09T14:11:12.812Z,5.45
2023-05-09T14:13:40.597Z,5.55
2023-05-09T14:16:09.807Z,5.50
2023-05-09T14:18:37.681Z,5.38
2023-05-09T14:21:05.951Z,5.97
2023-05-09T14:23:33.798Z,5.80
2023-05-09T14:26:01.557Z,5.28
2023-05-09T14:28:29.349Z,5.47
2023-05-09T14:30:57.351Z,6.15
2023-05-09T14:33:27.166Z,5.18
2023-05-09T14:35:54.930Z,5.90
2023-05-09T14:38:23.097Z,5.78
2023-05-09T14:40:50.929Z,6.20
2023-05-09T14:43:18.854Z,6.35
2023-05-09T14:45:47.349Z,5.70
2023-05-09T14:48:16.225Z,5.55
2023-05-09T14:50:45.542Z,5.35
2023-05-09T14:53:14.475Z,6.05
2023-05-09T14:55:42.323Z,5.43
2023-05-09T14:58:10.200Z,4.97
2023-05-09T15:00:38.051Z,3.70
2023-05-09T15:03:06.011Z,3.55
2023-05-09T15:05:33.850Z,3.90
2023-05-09T15:08:03.033Z,3.60
2023-05-09T15:10:31.835Z,3.50
2023-05-09T15:12:59.665Z,3.42
2023-05-09T15:15:27.627Z,3.50
2023-05-09T15:17:55.586Z,3.95
2023-05-09T15:20:23.271Z,3.97
2023-05-09T15:22:51.782Z,4.05
2023-05-09T15:25:21.889Z,3.97
2023-05-09T15:27:50.412Z,4.40
2023-05-09T15:30:18.423Z,4.30
2023-05-09T15:32:46.935Z,4.70
2023-05-09T15:35:15.894Z,4.18
2023-05-09T15:37:43.661Z,4.10
2023-05-09T15:40:12.605Z,4.30
2023-05-09T15:42:41.813Z,4.45
2023-05-09T15:45:10.107Z,4.68
2023-05-09T15:47:37.929Z,4.60
2023-05-09T15:50:06.388Z,4.85
2023-05-09T15:52:34.174Z,4.22
2023-05-09T15:55:02.113Z,4.60
2023-05-09T15:57:29.972Z,3.95
2023-05-09T15:59:59.118Z,3.67
2023-05-09T16:02:28.287Z,3.67
2023-05-09T16:04:56.104Z,3.38
2023-05-09T16:07:23.987Z,3.60
2023-05-09T16:09:51.755Z,3.70
2023-05-09T16:12:19.542Z,3.63
2023-05-09T16:14:47.365Z,3.80
2023-05-09T16:17:16.553Z,4.00
2023-05-09T16:19:44.273Z,3.80
2023-05-09T16:22:12.056Z,4.20
2023-05-09T16:24:39.925Z,4.78
2023-05-09T16:27:07.886Z,4.63
2023-05-09T16:29:35.670Z,4.57
2023-05-09T16:32:03.862Z,4.85
2023-05-09T16:34:33.241Z,4.63
2023-05-09T16:37:01.061Z,4.45
2023-05-09T16:39:29.315Z,4.68
2023-05-09T16:41:58.000Z,5.53
2023-05-09T16:44:26.404Z,4.90
2023-05-09T16:46:54.270Z,5.32
2023-05-09T16:49:22.121Z,5.53
2023-05-09T16:51:51.279Z,5.95
2023-05-09T16:54:18.985Z,6.05
2023-05-09T16:56:46.934Z,5.82
2023-05-09T16:59:15.040Z,5.93
2023-05-09T17:01:43.283Z,6.60
2023-05-09T17:04:11.380Z,6.38
2023-05-09T17:06:39.210Z,6.28
2023-05-09T17:09:08.470Z,6.40
2023-05-09T17:11:36.229Z,6.10
2023-05-09T17:14:04.544Z,6.03
2023-05-09T17:16:32.469Z,5.68
2023-05-09T17:19:00.192Z,5.28
2023-05-09T17:21:28.290Z,5.25
2023-05-09T17:23:56.561Z,4.95
2023-05-09T17:26:25.928Z,5.20
2023-05-09T17:28:54.005Z,4.53
2023-05-09T17:31:21.883Z,3.97
2023-05-09T17:33:50.050Z,3.47
2023-05-09T17:36:17.764Z,3.30
2023-05-09T17:38:45.575Z,3.33
2023-05-09T17:41:13.275Z,3.00
2023-05-09T17:43:42.380Z,3.10
2023-05-09T17:46:10.447Z,3.10
2023-05-09T17:48:38.393Z,3.03
2023-05-09T17:51:06.138Z,3.13
2023-05-09T17:53:33.917Z,3.30
2023-05-09T17:56:01.915Z,3.45
2023-05-09T17:58:30.068Z,3.75
2023-05-09T18:00:59.759Z,3.65
2023-05-09T18:03:28.914Z,3.50
2023-05-09T18:05:57.215Z,3.40
2023-05-09T18:08:25.067Z,3.33
2023-05-09T18:10:54.565Z,3.95
2023-05-09T18:13:23.580Z,3.17
2023-05-09T18:15:51.464Z,2.80
2023-05-09T18:18:20.599Z,3.00
2023-05-09T18:20:48.460Z,3.00
2023-05-09T18:23:16.652Z,3.15
2023-05-09T18:25:44.564Z,2.70
2023-05-09T18:28:12.349Z,2.70
2023-05-09T18:30:40.142Z,2.85
2023-05-09T18:33:08.106Z,2.90
2023-05-09T18:35:37.354Z,3.05
2023-05-09T18:38:05.122Z,2.90
2023-05-09T18:40:32.876Z,2.70
2023-05-09T18:43:00.693Z,2.92
2023-05-09T18:45:29.077Z,3.58
2023-05-09T18:47:56.796Z,3.25
2023-05-09T18:50:24.682Z,3.10
2023-05-09T18:52:53.843Z,3.60
2023-05-09T18:55:22.381Z,4.47
2023-05-09T18:57:50.368Z,3.70
2023-05-09T19:00:18.530Z,4.25
2023-05-09T19:02:46.368Z,3.80
2023-05-09T19:05:14.169Z,3.90
2023-05-09T19:07:41.997Z,3.50
2023-05-09T19:10:13.183Z,4.13
2023-05-09T19:12:41.695Z,3.28
2023-05-09T19:15:10.875Z,3.22
2023-05-09T19:17:39.004Z,3.50
2023-05-09T19:20:08.530Z,3.38
2023-05-09T19:22:36.571Z,3.40
2023-05-09T19:25:05.313Z,3.65
2023-05-09T19:27:34.533Z,3.90
2023-05-09T19:30:02.443Z,3.28
2023-05-09T19:32:30.385Z,3.28
2023-05-09T19:34:58.796Z,3.40
2023-05-09T19:37:26.693Z,3.10
2023-05-09T19:39:54.496Z,2.88
2023-05-09T19:42:22.570Z,3.05
2023-05-09T19:44:52.352Z,3.20
2023-05-09T19:47:20.301Z,3.20
2023-05-09T19:49:48.228Z,3.53
2023-05-09T19:52:15.989Z,2.75
2023-05-09T19:54:43.708Z,3.08
2023-05-09T19:57:12.364Z,2.80
2023-05-09T19:59:40.353Z,3.22
2023-05-09T20:02:09.619Z,2.80
2023-05-09T20:04:37.761Z,3.25
2023-05-09T20:07:06.174Z,2.45
2023-05-09T20:09:34.004Z,2.53
2023-05-09T20:12:03.479Z,2.20
2023-05-09T20:14:31.787Z,2.30
2023-05-09T20:16:59.507Z,2.40
2023-05-09T20:19:28.851Z,2.90
2023-05-09T20:21:56.756Z,2.55
2023-05-09T20:24:24.576Z,2.70
2023-05-09T20:26:52.403Z,2.47
2023-05-09T20:29:20.196Z,2.20
2023-05-09T20:31:48.314Z,2.38
2023-05-09T20:34:18.050Z,2.55
2023-05-09T20:36:50.906Z,2.65
2023-05-09T20:39:18.902Z,2.90
2023-05-09T20:41:46.982Z,2.60
2023-05-09T20:44:16.270Z,2.58
2023-05-09T20:46:44.988Z,2.80
2023-05-09T20:49:12.784Z,2.75
2023-05-09T20:51:40.629Z,3.17
2023-05-09T20:54:10.165Z,3.47
2023-05-09T20:56:37.928Z,3.15
2023-05-09T20:59:06.902Z,3.17
2023-05-09T21:01:36.826Z,3.22
2023-05-09T21:04:05.820Z,3.22
2023-05-09T21:06:34.168Z,2.85
2023-05-09T21:09:01.937Z,3.08
2023-05-09T21:11:31.191Z,2.72
2023-05-09T21:13:59.033Z,3.08
2023-05-09T21:16:28.130Z,2.95
2023-05-09T21:18:55.996Z,3.15
2023-05-09T21:21:23.803Z,2.70
2023-05-09T21:23:51.559Z,2.80
2023-05-09T21:26:19.288Z,3.70
2023-05-09T21:28:48.370Z,3.00
2023-05-09T21:31:16.198Z,3.00
2023-05-09T21:33:43.981Z,2.65
2023-05-09T21:36:12.107Z,2.80
2023-05-09T21:38:39.777Z,2.63
2023-05-09T21:41:07.614Z,2.30
2023-05-09T21:43:36.159Z,2.33
2023-05-09T21:46:06.550Z,2.33
2023-05-09T21:48:34.392Z,1.92
2023-05-09T21:51:02.666Z,2.05
2023-05-09T21:53:30.778Z,2.00
2023-05-09T21:55:58.534Z,2.20
2023-05-09T21:58:26.364Z,2.30
2023-05-09T22:00:54.127Z,2.30
2023-05-09T22:03:23.388Z,2.35
2023-05-09T22:05:51.329Z,2.00
2023-05-09T22:08:19.053Z,2.25
2023-05-09T22:10:46.994Z,2.63
2023-05-09T22:13:14.811Z,2.08
2023-05-09T22:15:43.141Z,1.45
2023-05-09T22:18:11.416Z,0.85
2023-05-09T22:20:40.586Z,0.82
2023-05-09T22:23:08.535Z,0.90
2023-05-09T22:25:36.269Z,0.70
2023-05-09T22:28:04.147Z,1.02
2023-05-09T22:30:32.288Z,0.60
2023-05-09T22:33:01.033Z,1.20
2023-05-09T22:35:28.762Z,0.85
2023-05-09T22:37:57.967Z,0.70
2023-05-09T22:40:26.382Z,1.00
2023-05-09T22:42:54.297Z,0.52
2023-05-09T22:45:22.321Z,0.60
2023-05-09T22:47:50.155Z,0.90
2023-05-09T22:50:18.320Z,0.88
2023-05-09T22:52:46.181Z,0.70
2023-05-09T22:55:15.340Z,0.80
2023-05-09T22:57:43.103Z,0.75
2023-05-09T23:00:11.904Z,0.80
2023-05-09T23:02:39.780Z,0.80
2023-05-09T23:05:08.804Z,0.90
2023-05-09T23:07:36.619Z,0.93
2023-05-09T23:10:05.250Z,0.80
2023-05-09T23:12:34.444Z,0.90
2023-05-09T23:15:02.280Z,0.85
2023-05-09T23:17:30.125Z,0.70
2023-05-09T23:20:00.523Z,0.95
2023-05-09T23:22:28.332Z,0.90
2023-05-09T23:24:56.074Z,1.13
2023-05-09T23:27:23.885Z,1.20
2023-05-09T23:29:53.037Z,1.10
2023-05-09T23:32:20.924Z,0.95
2023-05-09T23:34:48.616Z,0.80
2023-05-09T23:37:16.457Z,1.50
2023-05-09T23:39:44.214Z,1.90
2023-05-09T23:42:12.340Z,1.77
2023-05-09T23:44:40.349Z,1.40
2023-05-09T23:47:09.445Z,1.48
2023-05-09T23:49:37.259Z,1.33
2023-05-09T23:52:05.228Z,1.45
2023-05-09T23:54:32.925Z,1.30
2023-05-09T23:57:00.732Z,1.35
2023-05-09T23:59:28.641Z,1.30
